sensor_id;sensor_type;location;lat;lon;timestamp;P1;durP1;ratioP1;P2;durP2;ratioP2
34924;SDS011;21130;51.728;8.748;2022-12-18T00:01:14;27.70;;;16.95;;
34924;SDS011;21130;51.728;8.748;2022-12-18T00:03:42;26.80;;;17.15;;
34924;SDS011;21130;51.728;8.748;2022-12-18T00:06:13;26.60;;;16.65;;
34924;SDS011;21130;51.728;8.748;2022-12-18T00:08:40;25.48;;;16.80;;
34924;SDS011;21130;51.728;8.748;2022-12-18T00:11:09;28.23;;;17.20;;
34924;SDS011;21130;51.728;8.748;2022-12-18T00:13:37;30.55;;;17.90;;
34924;SDS011;21130;51.728;8.748;2022-12-18T00:16:05;24.23;;;17.20;;
34924;SDS011;21130;51.728;8.748;2022-12-18T00:18:33;25.98;;;15.95;;
34924;SDS011;21130;51.728;8.748;2022-12-18T00:21:00;24.17;;;17.17;;
34924;SDS011;21130;51.728;8.748;2022-12-18T00:23:29;26.02;;;16.58;;
34924;SDS011;21130;51.728;8.748;2022-12-18T00:25:58;26.10;;;16.35;;
34924;SDS011;21130;51.728;8.748;2022-12-18T00:28:26;27.58;;;17.10;;
34924;SDS011;21130;51.728;8.748;2022-12-18T00:30:59;28.98;;;16.70;;
34924;SDS011;21130;51.728;8.748;2022-12-18T00:33:26;24.63;;;15.35;;
34924;SDS011;21130;51.728;8.748;2022-12-18T00:35:53;25.63;;;15.90;;
34924;SDS011;21130;51.728;8.748;2022-12-18T00:38:20;34.25;;;17.67;;
34924;SDS011;21130;51.728;8.748;2022-12-18T00:40:48;33.95;;;18.02;;
34924;SDS011;21130;51.728;8.748;2022-12-18T00:43:16;31.95;;;15.82;;
34924;SDS011;21130;51.728;8.748;2022-12-18T00:45:42;28.08;;;14.63;;
34924;SDS011;21130;51.728;8.748;2022-12-18T00:48:08;25.15;;;15.52;;
34924;SDS011;21130;51.728;8.748;2022-12-18T00:50:35;25.50;;;15.73;;
34924;SDS011;21130;51.728;8.748;2022-12-18T00:53:02;26.98;;;16.45;;
34924;SDS011;21130;51.728;8.748;2022-12-18T00:55:28;29.02;;;16.67;;
34924;SDS011;21130;51.728;8.748;2022-12-18T00:57:56;26.95;;;16.85;;
34924;SDS011;21130;51.728;8.748;2022-12-18T01:00:23;28.52;;;16.92;;
34924;SDS011;21130;51.728;8.748;2022-12-18T01:02:50;29.60;;;17.70;;
34924;SDS011;21130;51.728;8.748;2022-12-18T01:05:17;43.97;;;26.80;;
34924;SDS011;21130;51.728;8.748;2022-12-18T01:07:43;40.47;;;23.98;;
34924;SDS011;21130;51.728;8.748;2022-12-18T01:10:11;32.67;;;21.48;;
34924;SDS011;21130;51.728;8.748;2022-12-18T01:12:38;32.42;;;17.38;;
34924;SDS011;21130;51.728;8.748;2022-12-18T01:15:07;33.97;;;19.20;;
34924;SDS011;21130;51.728;8.748;2022-12-18T01:17:36;30.40;;;17.88;;
34924;SDS011;21130;51.728;8.748;2022-12-18T01:20:02;27.35;;;16.85;;
34924;SDS011;21130;51.728;8.748;2022-12-18T01:22:30;24.77;;;15.60;;
34924;SDS011;21130;51.728;8.748;2022-12-18T01:24:56;22.23;;;14.13;;
34924;SDS011;21130;51.728;8.748;2022-12-18T01:27:23;40.95;;;23.13;;
34924;SDS011;21130;51.728;8.748;2022-12-18T01:29:49;34.05;;;20.08;;
34924;SDS011;21130;51.728;8.748;2022-12-18T01:32:17;42.53;;;20.27;;
34924;SDS011;21130;51.728;8.748;2022-12-18T01:34:44;32.28;;;18.83;;
34924;SDS011;21130;51.728;8.748;2022-12-18T01:37:11;30.08;;;17.83;;
34924;SDS011;21130;51.728;8.748;2022-12-18T01:39:37;33.50;;;19.50;;
34924;SDS011;21130;51.728;8.748;2022-12-18T01:42:05;35.42;;;18.90;;
34924;SDS011;21130;51.728;8.748;2022-12-18T01:44:53;38.47;;;19.45;;
34924;SDS011;21130;51.728;8.748;2022-12-18T01:47:29;32.92;;;18.83;;
34924;SDS011;21130;51.728;8.748;2022-12-18T01:50:00;28.15;;;16.35;;
34924;SDS011;21130;51.728;8.748;2022-12-18T01:52:30;22.65;;;14.40;;
34924;SDS011;21130;51.728;8.748;2022-12-18T01:54:58;16.50;;;11.38;;
34924;SDS011;21130;51.728;8.748;2022-12-18T01:57:26;18.48;;;11.65;;
34924;SDS011;21130;51.728;8.748;2022-12-18T01:59:56;19.50;;;11.82;;
34924;SDS011;21130;51.728;8.748;2022-12-18T02:02:26;17.25;;;10.43;;
34924;SDS011;21130;51.728;8.748;2022-12-18T02:04:54;14.70;;;10.88;;
34924;SDS011;21130;51.728;8.748;2022-12-18T02:07:22;17.50;;;9.18;;
34924;SDS011;21130;51.728;8.748;2022-12-18T02:09:59;14.05;;;8.57;;
34924;SDS011;21130;51.728;8.748;2022-12-18T02:12:32;14.15;;;10.18;;
34924;SDS011;21130;51.728;8.748;2022-12-18T02:15:09;15.52;;;10.35;;
34924;SDS011;21130;51.728;8.748;2022-12-18T02:17:43;15.73;;;9.82;;
34924;SDS011;21130;51.728;8.748;2022-12-18T02:20:16;15.32;;;8.70;;
34924;SDS011;21130;51.728;8.748;2022-12-18T02:22:50;11.70;;;8.65;;
34924;SDS011;21130;51.728;8.748;2022-12-18T02:25:34;13.23;;;7.80;;
34924;SDS011;21130;51.728;8.748;2022-12-18T02:28:26;9.23;;;7.00;;
34924;SDS011;21130;51.728;8.748;2022-12-18T02:30:56;10.07;;;7.10;;
34924;SDS011;21130;51.728;8.748;2022-12-18T02:33:27;9.82;;;7.38;;
34924;SDS011;21130;51.728;8.748;2022-12-18T02:35:57;10.80;;;7.55;;
34924;SDS011;21130;51.728;8.748;2022-12-18T02:38:25;8.90;;;7.43;;
34924;SDS011;21130;51.728;8.748;2022-12-18T02:40:52;9.90;;;6.20;;
34924;SDS011;21130;51.728;8.748;2022-12-18T02:43:23;10.75;;;7.05;;
34924;SDS011;21130;51.728;8.748;2022-12-18T02:45:50;9.32;;;6.97;;
34924;SDS011;21130;51.728;8.748;2022-12-18T02:48:21;11.52;;;6.25;;
34924;SDS011;21130;51.728;8.748;2022-12-18T02:50:51;11.52;;;6.55;;
34924;SDS011;21130;51.728;8.748;2022-12-18T02:53:27;10.38;;;6.53;;
34924;SDS011;21130;51.728;8.748;2022-12-18T02:56:04;9.80;;;6.20;;
34924;SDS011;21130;51.728;8.748;2022-12-18T02:58:38;9.63;;;6.30;;
34924;SDS011;21130;51.728;8.748;2022-12-18T03:01:19;12.55;;;7.30;;
34924;SDS011;21130;51.728;8.748;2022-12-18T03:03:52;10.98;;;7.18;;
34924;SDS011;21130;51.728;8.748;2022-12-18T03:06:23;9.07;;;6.53;;
34924;SDS011;21130;51.728;8.748;2022-12-18T03:08:53;10.15;;;7.20;;
34924;SDS011;21130;51.728;8.748;2022-12-18T03:11:26;10.82;;;6.85;;
34924;SDS011;21130;51.728;8.748;2022-12-18T03:14:13;13.98;;;6.80;;
34924;SDS011;21130;51.728;8.748;2022-12-18T03:16:43;11.15;;;7.18;;
34924;SDS011;21130;51.728;8.748;2022-12-18T03:19:13;14.90;;;7.78;;
34924;SDS011;21130;51.728;8.748;2022-12-18T03:21:45;10.63;;;7.50;;
34924;SDS011;21130;51.728;8.748;2022-12-18T03:24:13;9.25;;;7.00;;
34924;SDS011;21130;51.728;8.748;2022-12-18T03:26:44;10.13;;;7.47;;
34924;SDS011;21130;51.728;8.748;2022-12-18T03:29:14;10.90;;;7.53;;
34924;SDS011;21130;51.728;8.748;2022-12-18T03:31:45;11.05;;;7.68;;
34924;SDS011;21130;51.728;8.748;2022-12-18T03:34:19;10.00;;;7.13;;
34924;SDS011;21130;51.728;8.748;2022-12-18T03:36:49;10.82;;;7.90;;
34924;SDS011;21130;51.728;8.748;2022-12-18T03:39:16;10.85;;;7.68;;
34924;SDS011;21130;51.728;8.748;2022-12-18T03:41:43;11.38;;;7.55;;
34924;SDS011;21130;51.728;8.748;2022-12-18T03:44:16;9.90;;;6.95;;
34924;SDS011;21130;51.728;8.748;2022-12-18T03:46:48;12.60;;;7.18;;
34924;SDS011;21130;51.728;8.748;2022-12-18T03:49:23;11.13;;;6.90;;
34924;SDS011;21130;51.728;8.748;2022-12-18T03:51:54;8.68;;;6.28;;
34924;SDS011;21130;51.728;8.748;2022-12-18T03:54:27;11.27;;;7.25;;
34924;SDS011;21130;51.728;8.748;2022-12-18T03:56:58;9.50;;;7.25;;
34924;SDS011;21130;51.728;8.748;2022-12-18T03:59:27;9.73;;;7.05;;
34924;SDS011;21130;51.728;8.748;2022-12-18T04:01:55;10.75;;;7.43;;
34924;SDS011;21130;51.728;8.748;2022-12-18T04:04:25;9.77;;;7.13;;
34924;SDS011;21130;51.728;8.748;2022-12-18T04:06:54;11.70;;;7.32;;
34924;SDS011;21130;51.728;8.748;2022-12-18T04:09:21;13.20;;;7.85;;
34924;SDS011;21130;51.728;8.748;2022-12-18T04:11:49;12.52;;;7.80;;
34924;SDS011;21130;51.728;8.748;2022-12-18T04:14:19;9.85;;;7.57;;
34924;SDS011;21130;51.728;8.748;2022-12-18T04:16:45;11.95;;;7.93;;
34924;SDS011;21130;51.728;8.748;2022-12-18T04:19:12;10.95;;;8.07;;
34924;SDS011;21130;51.728;8.748;2022-12-18T04:21:39;10.60;;;7.78;;
34924;SDS011;21130;51.728;8.748;2022-12-18T04:24:06;13.15;;;8.35;;
34924;SDS011;21130;51.728;8.748;2022-12-18T04:26:33;12.98;;;8.65;;
34924;SDS011;21130;51.728;8.748;2022-12-18T04:29:00;11.60;;;8.32;;
34924;SDS011;21130;51.728;8.748;2022-12-18T04:31:27;13.90;;;9.10;;
34924;SDS011;21130;51.728;8.748;2022-12-18T04:33:54;11.90;;;8.52;;
34924;SDS011;21130;51.728;8.748;2022-12-18T04:36:21;11.35;;;8.68;;
34924;SDS011;21130;51.728;8.748;2022-12-18T04:38:47;12.35;;;8.88;;
34924;SDS011;21130;51.728;8.748;2022-12-18T04:41:14;14.13;;;9.65;;
34924;SDS011;21130;51.728;8.748;2022-12-18T04:43:40;12.68;;;8.88;;
34924;SDS011;21130;51.728;8.748;2022-12-18T04:46:07;12.57;;;8.73;;
34924;SDS011;21130;51.728;8.748;2022-12-18T04:48:36;12.88;;;8.63;;
34924;SDS011;21130;51.728;8.748;2022-12-18T04:51:03;13.38;;;8.45;;
34924;SDS011;21130;51.728;8.748;2022-12-18T04:53:30;12.95;;;9.07;;
34924;SDS011;21130;51.728;8.748;2022-12-18T04:56:03;14.70;;;8.68;;
34924;SDS011;21130;51.728;8.748;2022-12-18T04:58:32;14.20;;;9.00;;
34924;SDS011;21130;51.728;8.748;2022-12-18T05:00:58;15.02;;;9.05;;
34924;SDS011;21130;51.728;8.748;2022-12-18T05:03:25;14.13;;;9.77;;
34924;SDS011;21130;51.728;8.748;2022-12-18T05:05:53;14.20;;;9.23;;
34924;SDS011;21130;51.728;8.748;2022-12-18T05:08:19;13.73;;;9.70;;
34924;SDS011;21130;51.728;8.748;2022-12-18T05:10:46;14.18;;;9.43;;
34924;SDS011;21130;51.728;8.748;2022-12-18T05:13:12;13.68;;;9.43;;
34924;SDS011;21130;51.728;8.748;2022-12-18T05:15:39;13.77;;;9.07;;
34924;SDS011;21130;51.728;8.748;2022-12-18T05:18:06;13.30;;;8.73;;
34924;SDS011;21130;51.728;8.748;2022-12-18T05:20:34;12.02;;;8.85;;
34924;SDS011;21130;51.728;8.748;2022-12-18T05:23:01;13.77;;;8.93;;
34924;SDS011;21130;51.728;8.748;2022-12-18T05:25:28;13.13;;;9.40;;
34924;SDS011;21130;51.728;8.748;2022-12-18T05:27:54;16.80;;;9.65;;
34924;SDS011;21130;51.728;8.748;2022-12-18T05:30:21;16.02;;;9.68;;
34924;SDS011;21130;51.728;8.748;2022-12-18T05:32:47;12.85;;;9.02;;
34924;SDS011;21130;51.728;8.748;2022-12-18T05:35:14;12.80;;;9.45;;
34924;SDS011;21130;51.728;8.748;2022-12-18T05:37:40;13.77;;;8.23;;
34924;SDS011;21130;51.728;8.748;2022-12-18T05:40:09;12.85;;;8.85;;
34924;SDS011;21130;51.728;8.748;2022-12-18T05:42:36;13.25;;;9.30;;
34924;SDS011;21130;51.728;8.748;2022-12-18T05:45:03;12.88;;;9.32;;
34924;SDS011;21130;51.728;8.748;2022-12-18T05:47:31;11.65;;;8.75;;
34924;SDS011;21130;51.728;8.748;2022-12-18T05:49:58;13.88;;;8.77;;
34924;SDS011;21130;51.728;8.748;2022-12-18T05:52:24;14.23;;;9.65;;
34924;SDS011;21130;51.728;8.748;2022-12-18T05:54:50;10.82;;;8.32;;
34924;SDS011;21130;51.728;8.748;2022-12-18T05:57:18;13.95;;;8.48;;
34924;SDS011;21130;51.728;8.748;2022-12-18T05:59:45;13.85;;;9.15;;
34924;SDS011;21130;51.728;8.748;2022-12-18T06:02:12;13.10;;;8.27;;
34924;SDS011;21130;51.728;8.748;2022-12-18T06:04:38;12.15;;;8.93;;
34924;SDS011;21130;51.728;8.748;2022-12-18T06:07:05;11.45;;;8.07;;
34924;SDS011;21130;51.728;8.748;2022-12-18T06:09:31;13.65;;;8.75;;
34924;SDS011;21130;51.728;8.748;2022-12-18T06:11:58;12.93;;;9.00;;
34924;SDS011;21130;51.728;8.748;2022-12-18T06:14:26;11.38;;;8.50;;
34924;SDS011;21130;51.728;8.748;2022-12-18T06:16:53;14.02;;;8.32;;
34924;SDS011;21130;51.728;8.748;2022-12-18T06:19:19;11.85;;;7.82;;
34924;SDS011;21130;51.728;8.748;2022-12-18T06:21:46;10.43;;;7.60;;
34924;SDS011;21130;51.728;8.748;2022-12-18T06:24:14;12.23;;;7.45;;
34924;SDS011;21130;51.728;8.748;2022-12-18T06:26:40;10.38;;;7.22;;
34924;SDS011;21130;51.728;8.748;2022-12-18T06:29:07;11.85;;;7.28;;
34924;SDS011;21130;51.728;8.748;2022-12-18T06:31:35;13.20;;;8.27;;
34924;SDS011;21130;51.728;8.748;2022-12-18T06:34:02;10.90;;;7.50;;
34924;SDS011;21130;51.728;8.748;2022-12-18T06:36:29;11.70;;;8.05;;
34924;SDS011;21130;51.728;8.748;2022-12-18T06:38:55;13.98;;;8.38;;
34924;SDS011;21130;51.728;8.748;2022-12-18T06:41:23;11.48;;;7.57;;
34924;SDS011;21130;51.728;8.748;2022-12-18T06:43:50;10.93;;;8.00;;
34924;SDS011;21130;51.728;8.748;2022-12-18T06:46:16;10.52;;;8.00;;
34924;SDS011;21130;51.728;8.748;2022-12-18T06:48:45;11.00;;;8.07;;
34924;SDS011;21130;51.728;8.748;2022-12-18T06:51:15;12.90;;;8.23;;
34924;SDS011;21130;51.728;8.748;2022-12-18T06:53:42;11.85;;;7.93;;
34924;SDS011;21130;51.728;8.748;2022-12-18T06:56:08;9.98;;;7.88;;
34924;SDS011;21130;51.728;8.748;2022-12-18T06:58:35;11.00;;;8.15;;
34924;SDS011;21130;51.728;8.748;2022-12-18T07:01:02;12.10;;;8.30;;
34924;SDS011;21130;51.728;8.748;2022-12-18T07:03:52;11.07;;;8.02;;
34924;SDS011;21130;51.728;8.748;2022-12-18T07:06:38;12.38;;;8.20;;
34924;SDS011;21130;51.728;8.748;2022-12-18T07:09:06;11.48;;;8.40;;
34924;SDS011;21130;51.728;8.748;2022-12-18T07:11:33;11.77;;;8.15;;
34924;SDS011;21130;51.728;8.748;2022-12-18T07:13:59;9.98;;;7.65;;
34924;SDS011;21130;51.728;8.748;2022-12-18T07:16:26;11.65;;;8.13;;
34924;SDS011;21130;51.728;8.748;2022-12-18T07:18:55;11.43;;;8.15;;
34924;SDS011;21130;51.728;8.748;2022-12-18T07:21:23;13.50;;;8.52;;
34924;SDS011;21130;51.728;8.748;2022-12-18T07:23:50;10.48;;;8.10;;
34924;SDS011;21130;51.728;8.748;2022-12-18T07:26:18;11.75;;;8.63;;
34924;SDS011;21130;51.728;8.748;2022-12-18T07:28:46;10.95;;;8.10;;
34924;SDS011;21130;51.728;8.748;2022-12-18T07:31:14;12.80;;;8.95;;
34924;SDS011;21130;51.728;8.748;2022-12-18T07:33:43;12.95;;;8.85;;
34924;SDS011;21130;51.728;8.748;2022-12-18T07:36:11;12.43;;;8.55;;
34924;SDS011;21130;51.728;8.748;2022-12-18T07:38:37;13.30;;;7.82;;
34924;SDS011;21130;51.728;8.748;2022-12-18T07:41:05;11.25;;;8.27;;
34924;SDS011;21130;51.728;8.748;2022-12-18T07:43:33;15.35;;;8.52;;
34924;SDS011;21130;51.728;8.748;2022-12-18T07:46:00;11.88;;;8.45;;
34924;SDS011;21130;51.728;8.748;2022-12-18T07:48:27;11.93;;;8.98;;
34924;SDS011;21130;51.728;8.748;2022-12-18T07:50:57;12.10;;;8.63;;
34924;SDS011;21130;51.728;8.748;2022-12-18T07:53:25;11.75;;;8.43;;
34924;SDS011;21130;51.728;8.748;2022-12-18T07:55:55;12.70;;;8.30;;
34924;SDS011;21130;51.728;8.748;2022-12-18T07:58:23;11.50;;;8.32;;
34924;SDS011;21130;51.728;8.748;2022-12-18T08:00:49;11.55;;;8.95;;
34924;SDS011;21130;51.728;8.748;2022-12-18T08:03:17;12.98;;;8.85;;
34924;SDS011;21130;51.728;8.748;2022-12-18T08:05:44;13.30;;;8.95;;
34924;SDS011;21130;51.728;8.748;2022-12-18T08:08:11;12.57;;;8.00;;
34924;SDS011;21130;51.728;8.748;2022-12-18T08:10:39;12.10;;;8.98;;
34924;SDS011;21130;51.728;8.748;2022-12-18T08:13:05;10.95;;;7.72;;
34924;SDS011;21130;51.728;8.748;2022-12-18T08:15:32;14.43;;;8.40;;
34924;SDS011;21130;51.728;8.748;2022-12-18T08:17:58;13.23;;;10.38;;
34924;SDS011;21130;51.728;8.748;2022-12-18T08:20:25;15.35;;;10.15;;
34924;SDS011;21130;51.728;8.748;2022-12-18T08:22:51;12.18;;;8.90;;
34924;SDS011;21130;51.728;8.748;2022-12-18T08:25:19;12.73;;;8.95;;
34924;SDS011;21130;51.728;8.748;2022-12-18T08:27:47;13.27;;;8.55;;
34924;SDS011;21130;51.728;8.748;2022-12-18T08:30:13;13.48;;;8.82;;
34924;SDS011;21130;51.728;8.748;2022-12-18T08:32:40;14.52;;;9.05;;
34924;SDS011;21130;51.728;8.748;2022-12-18T08:35:07;11.30;;;7.78;;
34924;SDS011;21130;51.728;8.748;2022-12-18T08:37:34;12.32;;;8.20;;
34924;SDS011;21130;51.728;8.748;2022-12-18T08:40:00;9.80;;;7.95;;
34924;SDS011;21130;51.728;8.748;2022-12-18T08:42:27;10.35;;;7.38;;
34924;SDS011;21130;51.728;8.748;2022-12-18T08:45:12;9.15;;;7.05;;
34924;SDS011;21130;51.728;8.748;2022-12-18T08:47:39;11.07;;;7.90;;
34924;SDS011;21130;51.728;8.748;2022-12-18T08:50:05;11.55;;;7.95;;
34924;SDS011;21130;51.728;8.748;2022-12-18T08:52:32;9.32;;;7.05;;
34924;SDS011;21130;51.728;8.748;2022-12-18T08:54:59;9.18;;;6.97;;
34924;SDS011;21130;51.728;8.748;2022-12-18T08:57:25;8.90;;;6.15;;
34924;SDS011;21130;51.728;8.748;2022-12-18T08:59:52;7.25;;;5.93;;
34924;SDS011;21130;51.728;8.748;2022-12-18T09:02:20;10.13;;;6.63;;
34924;SDS011;21130;51.728;8.748;2022-12-18T09:04:46;9.05;;;6.43;;
34924;SDS011;21130;51.728;8.748;2022-12-18T09:07:13;7.90;;;6.15;;
34924;SDS011;21130;51.728;8.748;2022-12-18T09:09:40;9.02;;;5.93;;
34924;SDS011;21130;51.728;8.748;2022-12-18T09:12:06;9.90;;;6.63;;
34924;SDS011;21130;51.728;8.748;2022-12-18T09:14:33;8.10;;;6.60;;
34924;SDS011;21130;51.728;8.748;2022-12-18T09:16:59;9.15;;;6.35;;
34924;SDS011;21130;51.728;8.748;2022-12-18T09:19:27;8.90;;;6.28;;
34924;SDS011;21130;51.728;8.748;2022-12-18T09:21:53;7.85;;;6.07;;
34924;SDS011;21130;51.728;8.748;2022-12-18T09:24:20;9.20;;;6.65;;
34924;SDS011;21130;51.728;8.748;2022-12-18T09:26:46;8.35;;;6.85;;
34924;SDS011;21130;51.728;8.748;2022-12-18T09:29:13;10.13;;;7.20;;
34924;SDS011;21130;51.728;8.748;2022-12-18T09:31:40;8.90;;;6.55;;
34924;SDS011;21130;51.728;8.748;2022-12-18T09:34:07;8.02;;;6.75;;
34924;SDS011;21130;51.728;8.748;2022-12-18T09:36:34;8.50;;;7.70;;
34924;SDS011;21130;51.728;8.748;2022-12-18T09:39:02;8.48;;;6.82;;
34924;SDS011;21130;51.728;8.748;2022-12-18T09:41:39;8.07;;;6.07;;
34924;SDS011;21130;51.728;8.748;2022-12-18T09:44:22;8.75;;;6.20;;
34924;SDS011;21130;51.728;8.748;2022-12-18T09:46:52;8.13;;;7.05;;
34924;SDS011;21130;51.728;8.748;2022-12-18T09:49:25;8.73;;;6.65;;
34924;SDS011;21130;51.728;8.748;2022-12-18T09:51:56;8.52;;;6.22;;
34924;SDS011;21130;51.728;8.748;2022-12-18T09:54:31;10.10;;;6.70;;
34924;SDS011;21130;51.728;8.748;2022-12-18T09:57:01;7.82;;;6.00;;
34924;SDS011;21130;51.728;8.748;2022-12-18T09:59:30;7.45;;;6.07;;
34924;SDS011;21130;51.728;8.748;2022-12-18T10:02:00;8.95;;;6.20;;
34924;SDS011;21130;51.728;8.748;2022-12-18T10:04:36;7.25;;;6.32;;
34924;SDS011;21130;51.728;8.748;2022-12-18T10:07:05;7.93;;;6.70;;
34924;SDS011;21130;51.728;8.748;2022-12-18T10:09:40;7.72;;;6.43;;
34924;SDS011;21130;51.728;8.748;2022-12-18T10:12:16;11.05;;;7.38;;
34924;SDS011;21130;51.728;8.748;2022-12-18T10:14:52;9.32;;;6.75;;
34924;SDS011;21130;51.728;8.748;2022-12-18T10:17:26;9.68;;;7.25;;
34924;SDS011;21130;51.728;8.748;2022-12-18T10:20:05;7.25;;;5.93;;
34924;SDS011;21130;51.728;8.748;2022-12-18T10:22:43;8.18;;;6.35;;
34924;SDS011;21130;51.728;8.748;2022-12-18T10:25:19;7.25;;;6.05;;
34924;SDS011;21130;51.728;8.748;2022-12-18T10:27:49;7.25;;;5.70;;
34924;SDS011;21130;51.728;8.748;2022-12-18T10:30:20;7.60;;;6.03;;
34924;SDS011;21130;51.728;8.748;2022-12-18T10:32:48;8.45;;;6.50;;
34924;SDS011;21130;51.728;8.748;2022-12-18T10:35:17;7.82;;;6.13;;
34924;SDS011;21130;51.728;8.748;2022-12-18T10:38:21;9.70;;;6.35;;
34924;SDS011;21130;51.728;8.748;2022-12-18T10:40:52;6.93;;;5.72;;
34924;SDS011;21130;51.728;8.748;2022-12-18T10:43:21;7.28;;;6.07;;
34924;SDS011;21130;51.728;8.748;2022-12-18T10:45:58;7.60;;;6.15;;
34924;SDS011;21130;51.728;8.748;2022-12-18T10:48:26;8.13;;;5.95;;
34924;SDS011;21130;51.728;8.748;2022-12-18T10:50:54;6.90;;;6.20;;
34924;SDS011;21130;51.728;8.748;2022-12-18T10:53:23;8.27;;;5.90;;
34924;SDS011;21130;51.728;8.748;2022-12-18T10:55:52;10.18;;;6.32;;
34924;SDS011;21130;51.728;8.748;2022-12-18T10:58:21;9.48;;;6.13;;
34924;SDS011;21130;51.728;8.748;2022-12-18T11:01:09;7.30;;;5.75;;
34924;SDS011;21130;51.728;8.748;2022-12-18T11:03:38;8.52;;;6.57;;
34924;SDS011;21130;51.728;8.748;2022-12-18T11:06:07;9.38;;;5.93;;
34924;SDS011;21130;51.728;8.748;2022-12-18T11:08:36;10.35;;;6.40;;
34924;SDS011;21130;51.728;8.748;2022-12-18T11:11:04;8.43;;;6.15;;
34924;SDS011;21130;51.728;8.748;2022-12-18T11:13:41;9.07;;;6.40;;
34924;SDS011;21130;51.728;8.748;2022-12-18T11:16:18;7.45;;;5.30;;
34924;SDS011;21130;51.728;8.748;2022-12-18T11:18:44;10.50;;;6.50;;
34924;SDS011;21130;51.728;8.748;2022-12-18T11:21:11;9.75;;;6.45;;
34924;SDS011;21130;51.728;8.748;2022-12-18T11:23:45;10.15;;;6.50;;
34924;SDS011;21130;51.728;8.748;2022-12-18T11:26:13;8.48;;;6.75;;
34924;SDS011;21130;51.728;8.748;2022-12-18T11:28:40;9.68;;;7.03;;
34924;SDS011;21130;51.728;8.748;2022-12-18T11:31:11;9.25;;;6.65;;
34924;SDS011;21130;51.728;8.748;2022-12-18T11:43:12;8.05;;;6.05;;
34924;SDS011;21130;51.728;8.748;2022-12-18T11:45:45;8.95;;;6.57;;
34924;SDS011;21130;51.728;8.748;2022-12-18T11:48:18;8.18;;;6.40;;
34924;SDS011;21130;51.728;8.748;2022-12-18T11:50:50;8.30;;;6.57;;
34924;SDS011;21130;51.728;8.748;2022-12-18T11:53:19;8.63;;;5.93;;
34924;SDS011;21130;51.728;8.748;2022-12-18T11:55:49;10.43;;;6.97;;
34924;SDS011;21130;51.728;8.748;2022-12-18T11:58:27;8.73;;;6.60;;
34924;SDS011;21130;51.728;8.748;2022-12-18T12:01:04;8.52;;;6.53;;
34924;SDS011;21130;51.728;8.748;2022-12-18T12:03:45;10.50;;;6.30;;
34924;SDS011;21130;51.728;8.748;2022-12-18T12:06:23;7.75;;;5.63;;
34924;SDS011;21130;51.728;8.748;2022-12-18T12:08:59;9.25;;;6.63;;
34924;SDS011;21130;51.728;8.748;2022-12-18T12:11:37;8.02;;;6.45;;
34924;SDS011;21130;51.728;8.748;2022-12-18T12:14:25;8.45;;;6.28;;
34924;SDS011;21130;51.728;8.748;2022-12-18T12:17:03;8.13;;;5.97;;
34924;SDS011;21130;51.728;8.748;2022-12-18T12:19:39;8.65;;;6.20;;
34924;SDS011;21130;51.728;8.748;2022-12-18T12:22:13;9.77;;;6.43;;
34924;SDS011;21130;51.728;8.748;2022-12-18T12:24:53;8.07;;;6.28;;
34924;SDS011;21130;51.728;8.748;2022-12-18T12:27:34;9.75;;;6.15;;
34924;SDS011;21130;51.728;8.748;2022-12-18T12:30:14;8.00;;;6.20;;
34924;SDS011;21130;51.728;8.748;2022-12-18T12:32:55;10.07;;;6.00;;
34924;SDS011;21130;51.728;8.748;2022-12-18T12:35:32;7.38;;;5.63;;
34924;SDS011;21130;51.728;8.748;2022-12-18T12:38:09;8.63;;;5.93;;
34924;SDS011;21130;51.728;8.748;2022-12-18T12:40:41;7.88;;;5.80;;
34924;SDS011;21130;51.728;8.748;2022-12-18T12:43:20;6.28;;;4.90;;
34924;SDS011;21130;51.728;8.748;2022-12-18T12:45:55;8.40;;;6.45;;
34924;SDS011;21130;51.728;8.748;2022-12-18T12:48:31;7.30;;;5.35;;
34924;SDS011;21130;51.728;8.748;2022-12-18T12:51:03;8.10;;;6.10;;
34924;SDS011;21130;51.728;8.748;2022-12-18T12:53:37;7.35;;;5.80;;
34924;SDS011;21130;51.728;8.748;2022-12-18T12:56:06;9.93;;;5.72;;
34924;SDS011;21130;51.728;8.748;2022-12-18T12:58:36;8.63;;;6.22;;
34924;SDS011;21130;51.728;8.748;2022-12-18T13:01:14;8.02;;;6.43;;
34924;SDS011;21130;51.728;8.748;2022-12-18T13:03:52;7.00;;;5.57;;
34924;SDS011;21130;51.728;8.748;2022-12-18T13:06:27;8.02;;;5.68;;
34924;SDS011;21130;51.728;8.748;2022-12-18T13:08:59;8.93;;;5.88;;
34924;SDS011;21130;51.728;8.748;2022-12-18T13:11:36;7.40;;;5.72;;
34924;SDS011;21130;51.728;8.748;2022-12-18T13:14:24;6.85;;;5.47;;
34924;SDS011;21130;51.728;8.748;2022-12-18T13:20:03;8.68;;;5.72;;
34924;SDS011;21130;51.728;8.748;2022-12-18T13:22:34;6.32;;;5.18;;
34924;SDS011;21130;51.728;8.748;2022-12-18T13:25:02;6.53;;;5.13;;
34924;SDS011;21130;51.728;8.748;2022-12-18T13:27:46;8.95;;;5.50;;
34924;SDS011;21130;51.728;8.748;2022-12-18T13:36:09;7.93;;;5.78;;
34924;SDS011;21130;51.728;8.748;2022-12-18T13:39:15;8.50;;;5.60;;
34924;SDS011;21130;51.728;8.748;2022-12-18T13:48:02;7.57;;;6.15;;
34924;SDS011;21130;51.728;8.748;2022-12-18T13:50:30;7.90;;;5.80;;
34924;SDS011;21130;51.728;8.748;2022-12-18T13:52:57;8.20;;;6.10;;
34924;SDS011;21130;51.728;8.748;2022-12-18T13:55:24;7.82;;;6.07;;
34924;SDS011;21130;51.728;8.748;2022-12-18T13:57:50;8.40;;;6.07;;
34924;SDS011;21130;51.728;8.748;2022-12-18T14:00:30;8.75;;;6.35;;
34924;SDS011;21130;51.728;8.748;2022-12-18T14:02:57;9.07;;;6.13;;
34924;SDS011;21130;51.728;8.748;2022-12-18T14:05:25;8.57;;;6.75;;
34924;SDS011;21130;51.728;8.748;2022-12-18T14:07:55;7.45;;;6.00;;
34924;SDS011;21130;51.728;8.748;2022-12-18T14:10:26;9.50;;;7.00;;
34924;SDS011;21130;51.728;8.748;2022-12-18T14:12:53;7.90;;;5.57;;
34924;SDS011;21130;51.728;8.748;2022-12-18T14:15:23;8.55;;;6.25;;
34924;SDS011;21130;51.728;8.748;2022-12-18T14:17:59;9.60;;;6.38;;
34924;SDS011;21130;51.728;8.748;2022-12-18T14:20:28;8.82;;;6.40;;
34924;SDS011;21130;51.728;8.748;2022-12-18T14:22:58;9.63;;;6.60;;
34924;SDS011;21130;51.728;8.748;2022-12-18T14:25:26;10.05;;;7.07;;
34924;SDS011;21130;51.728;8.748;2022-12-18T14:28:02;8.43;;;6.40;;
34924;SDS011;21130;51.728;8.748;2022-12-18T14:30:38;10.77;;;6.75;;
34924;SDS011;21130;51.728;8.748;2022-12-18T14:33:09;8.30;;;6.57;;
34924;SDS011;21130;51.728;8.748;2022-12-18T14:35:37;9.85;;;7.05;;
34924;SDS011;21130;51.728;8.748;2022-12-18T14:38:11;10.50;;;7.03;;
34924;SDS011;21130;51.728;8.748;2022-12-18T14:40:45;10.18;;;6.72;;
34924;SDS011;21130;51.728;8.748;2022-12-18T14:43:12;10.25;;;6.82;;
34924;SDS011;21130;51.728;8.748;2022-12-18T14:45:40;9.23;;;7.50;;
34924;SDS011;21130;51.728;8.748;2022-12-18T14:48:08;11.90;;;8.23;;
34924;SDS011;21130;51.728;8.748;2022-12-18T14:50:41;9.13;;;6.75;;
34924;SDS011;21130;51.728;8.748;2022-12-18T14:53:18;13.70;;;9.65;;
34924;SDS011;21130;51.728;8.748;2022-12-18T14:55:48;11.70;;;8.93;;
34924;SDS011;21130;51.728;8.748;2022-12-18T14:58:15;13.32;;;8.90;;
34924;SDS011;21130;51.728;8.748;2022-12-18T15:00:43;9.75;;;7.60;;
34924;SDS011;21130;51.728;8.748;2022-12-18T15:03:10;11.23;;;8.80;;
34924;SDS011;21130;51.728;8.748;2022-12-18T15:05:38;11.38;;;8.05;;
34924;SDS011;21130;51.728;8.748;2022-12-18T15:11:00;10.95;;;8.00;;
34924;SDS011;21130;51.728;8.748;2022-12-18T15:13:27;11.75;;;8.27;;
34924;SDS011;21130;51.728;8.748;2022-12-18T15:15:53;10.52;;;7.75;;
34924;SDS011;21130;51.728;8.748;2022-12-18T15:18:42;10.65;;;7.57;;
34924;SDS011;21130;51.728;8.748;2022-12-18T15:21:28;11.25;;;8.35;;
34924;SDS011;21130;51.728;8.748;2022-12-18T15:24:18;12.65;;;8.25;;